Tiltonsville, Ohio
Current Conditions -  °F | °C
As of 7:53 AM on Sunday 28 Dec 2014 (Local Time) from KHLG Reporting Station
Overcast Overcast  
Wind Chill: 33°   Ceiling: 900
Heat Index: 40°   Visibility: 10mi
Dew Point: 37°   Wind: 12mph
Humidity: 89%   Direction: 310°NW
Pressure: 30.02"   Gusts: 20mph
Location:  40.17°N, 80.7°W
Report Text: KHLG 281253Z AUTO 31010G17KT 10SM BKN009 BKN018 OVC023 04/03 A3002 RMK AO2 RAE26 SLP172 P0000 T00440028
Loading
Personal Weather Stations






























Interactive Weather Map New forecast layout! Learn more

10-Day Weather Forecast

Advertisements
Track Severe Weather on mobile